»·PEaware :: SWA1513 KPHX-KSNA

SWA1513 :: KPHX-KSNA

FLIGHT INFORMATION

Flight Status: Arrived
Operator:
Southwest Airlines
More flights by this operator :: More flights under this callsign
Pilot: Cody B. (17747)
Aircraft: BOEING 737-800
(B738)
More flights by this aircraft type
Origin: KPHX Phoenix Sky Harbor Intl
United States
Destination: KSNA John Wayne-Orange Co
United States
More flights between these airports :: More routes between these airports
Route: KEENS2 HRRBR EMLLD DSNEE3
File this flight plan on PilotEdge
Remarks:
Altitude:
(Current/Filed)
34,000ft
Speed:
(Current/Filed)
461kts
Departed: 13-Jul-18 12:16 PM
Arrived: 13-Jul-18 01:09 PM
Distance/Time
Traveled:
293nm/0:53
Distance/Time
To Go:
Arrived

Flight Plot

Page will automatically refresh every two minutes.

Flight plan parsing failed; only flown route is shown


Map Options




Map Legend


Flown Route
Filed Route
Departure Airport
Arrival Airport
Navaid (VOR, NDB)
Fix

Horizontal Profiles

Position Reports

Time Latitude Longitude Heading Altitude Ground
Speed
13-Jul-18 11:52 33.434047 -111.997329 75 1142ft 0kts
13-Jul-18 11:53 33.434047 -111.997329 75 1142ft 0kts
13-Jul-18 11:54 33.434047 -111.997329 75 1142ft 0kts
13-Jul-18 11:55 33.434047 -111.997329 75 1142ft 0kts
13-Jul-18 11:56 33.434047 -111.997329 75 1142ft 0kts
13-Jul-18 11:57 33.434047 -111.997329 75 1142ft 0kts
13-Jul-18 11:58 33.434047 -111.997329 75 1142ft 0kts
13-Jul-18 11:59 33.434047 -111.997329 75 1142ft 0kts
13-Jul-18 12:00 33.434047 -111.997329 75 1142ft 0kts
13-Jul-18 12:01 33.434047 -111.997329 75 1142ft 0kts
13-Jul-18 12:02 33.434047 -111.997329 75 1142ft 0kts
13-Jul-18 12:03 33.434047 -111.997329 75 1142ft 0kts
13-Jul-18 12:04 33.434047 -111.997329 75 1142ft 0kts
13-Jul-18 12:05 33.434020 -111.997459 75 1142ft 2kts
13-Jul-18 12:06 33.434260 -111.997809 180 1142ft 1kts
13-Jul-18 12:07 33.434273 -111.997809 179 1142ft 0kts
13-Jul-18 12:08 33.434273 -111.997809 179 1142ft 0kts
13-Jul-18 12:09 33.434156 -111.997808 179 1142ft 1kts
13-Jul-18 12:10 33.433528 -111.997799 179 1142ft 0kts
13-Jul-18 12:11 33.433468 -111.997798 179 1142ft 0kts
13-Jul-18 12:12 33.432965 -111.997873 199 1142ft 4kts
13-Jul-18 12:13 33.432162 -111.997132 91 1142ft 5kts
13-Jul-18 12:14 33.432151 -111.994225 89 1142ft 6kts
13-Jul-18 12:15 33.432041 -111.993544 158 1142ft 0kts
13-Jul-18 12:16 33.431767 -111.993472 173 1142ft 5kts
13-Jul-18 12:17 33.431028 -111.998387 269 1142ft 73kts
13-Jul-18 12:18 33.431148 -112.049828 269 2627ft 184kts
13-Jul-18 12:19 33.417592 -112.112425 251 4931ft 220kts
13-Jul-18 12:20 33.398084 -112.183937 251 7440ft 248kts
13-Jul-18 12:21 33.402027 -112.268957 279 9945ft 275kts
13-Jul-18 12:22 33.416382 -112.366745 280 11802ft 322kts
13-Jul-18 12:23 33.432349 -112.475564 280 14263ft 342kts
13-Jul-18 12:24 33.448932 -112.588978 280 16724ft 354kts
13-Jul-18 12:25 33.453568 -112.706534 269 18950ft 366kts
13-Jul-18 12:26 33.459221 -112.829099 281 21005ft 377kts
13-Jul-18 12:27 33.482053 -112.953134 283 22973ft 386kts
13-Jul-18 12:28 33.505557 -113.079852 283 24727ft 396kts
13-Jul-18 12:29 33.529502 -113.209600 283 26295ft 405kts
13-Jul-18 12:30 33.553959 -113.343111 283 27800ft 413kts
13-Jul-18 12:31 33.578654 -113.478569 283 29122ft 422kts
13-Jul-18 12:32 33.604001 -113.615580 283 30662ft 420kts
13-Jul-18 12:33 33.628988 -113.750418 283 32087ft 417kts
13-Jul-18 12:34 33.657003 -113.884122 293 33352ft 413kts
13-Jul-18 12:35 33.704989 -114.009825 295 33991ft 424kts
13-Jul-18 12:36 33.754614 -114.142187 286 33977ft 450kts
13-Jul-18 12:37 33.774730 -114.291123 278 33984ft 455kts
13-Jul-18 12:38 33.792146 -114.440987 278 33981ft 454kts
13-Jul-18 12:39 33.809468 -114.591532 278 33981ft 454kts
13-Jul-18 12:40 33.826339 -114.739733 277 33977ft 454kts
13-Jul-18 12:41 33.843239 -114.890085 277 33984ft 454kts
13-Jul-18 12:42 33.859550 -115.036088 278 33980ft 453kts
13-Jul-18 12:43 33.876065 -115.185855 277 33985ft 452kts
13-Jul-18 12:44 33.892430 -115.335563 277 33976ft 452kts
13-Jul-18 12:45 33.908682 -115.486099 277 33958ft 455kts
13-Jul-18 12:46 33.924810 -115.637132 277 33420ft 453kts
13-Jul-18 12:47 33.935474 -115.773874 274 32524ft 455kts
13-Jul-18 12:48 33.946028 -115.923825 274 31541ft 449kts
13-Jul-18 12:49 33.956227 -116.071768 274 29973ft 443kts
13-Jul-18 12:50 33.964250 -116.215969 265 27484ft 425kts
13-Jul-18 12:51 33.947981 -116.350210 261 24852ft 398kts
13-Jul-18 12:52 33.931492 -116.479999 261 22464ft 388kts
13-Jul-18 12:53 33.915460 -116.605811 261 20163ft 377kts
13-Jul-18 12:54 33.900404 -116.721275 260 18081ft 369kts
13-Jul-18 12:55 33.886637 -116.838379 261 15926ft 359kts
13-Jul-18 12:56 33.873763 -116.955378 262 13996ft 353kts
13-Jul-18 12:57 33.861118 -117.069600 261 12008ft 343kts
13-Jul-18 12:58 33.849596 -117.173042 261 11051ft 287kts
13-Jul-18 12:59 33.839201 -117.265602 261 10218ft 281kts
13-Jul-18 13:00 33.828734 -117.357676 261 9154ft 268kts
13-Jul-18 13:01 33.818926 -117.443664 261 8080ft 258kts
13-Jul-18 13:02 33.805817 -117.523758 279 7435ft 244kts
13-Jul-18 13:03 33.820072 -117.603898 281 5953ft 245kts
13-Jul-18 13:04 33.841255 -117.675820 300 4988ft 233kts
13-Jul-18 13:05 33.854168 -117.744583 239 3401ft 230kts
13-Jul-18 13:06 33.808074 -117.785861 206 2977ft 189kts
13-Jul-18 13:07 33.764931 -117.811277 207 2141ft 167kts
13-Jul-18 13:08 33.727786 -117.835613 209 1128ft 146kts
13-Jul-18 13:09 33.692615 -117.858090 210 333ft 145kts
13-Jul-18 13:10 33.670069 -117.872261 169 64ft 4kts
13-Jul-18 13:11 33.669240 -117.870838 47 64ft 5kts
13-Jul-18 13:12 33.670264 -117.869772 40 64ft 5kts
13-Jul-18 13:13 33.672349 -117.867971 27 64ft 11kts
13-Jul-18 13:14 33.674521 -117.866233 27 64ft 9kts
13-Jul-18 13:15 33.676185 -117.865158 26 64ft 2kts
13-Jul-18 13:16 33.676106 -117.864409 120 64ft 0kts
13-Jul-18 13:17 33.676106 -117.864409 120 64ft 0kts

Navigation Log

Ident Type
Flight plan parsing failed, navigation log unavailable